sensor_id;sensor_type;location;lat;lon;timestamp;pressure;altitude;pressure_sealevel;temperature;humidity
77975;BME280;67164;51.202;0.278;2023-04-25T00:00:02;101143.00;;;22.40;41.26
77975;BME280;67164;51.202;0.278;2023-04-25T00:02:26;101146.10;;;22.11;41.31
77975;BME280;67164;51.202;0.278;2023-04-25T00:04:52;101143.57;;;22.41;41.22
77975;BME280;67164;51.202;0.278;2023-04-25T00:07:15;101143.94;;;22.36;41.18
77975;BME280;67164;51.202;0.278;2023-04-25T00:09:42;101150.27;;;22.03;41.31
77975;BME280;67164;51.202;0.278;2023-04-25T00:12:07;101148.51;;;22.04;41.28
77975;BME280;67164;51.202;0.278;2023-04-25T00:14:34;101150.52;;;22.06;41.20
77975;BME280;67164;51.202;0.278;2023-04-25T00:16:58;101147.61;;;22.04;41.21
77975;BME280;67164;51.202;0.278;2023-04-25T00:19:26;101145.66;;;22.22;41.27
77975;BME280;67164;51.202;0.278;2023-04-25T00:21:51;101139.95;;;22.11;41.13
77975;BME280;67164;51.202;0.278;2023-04-25T00:24:19;101137.41;;;22.03;41.17
77975;BME280;67164;51.202;0.278;2023-04-25T00:26:43;101140.10;;;22.21;41.25
77975;BME280;67164;51.202;0.278;2023-04-25T00:29:08;101140.31;;;22.37;41.11
77975;BME280;67164;51.202;0.278;2023-04-25T00:31:34;101144.89;;;22.30;41.14
77975;BME280;67164;51.202;0.278;2023-04-25T00:34:01;101144.25;;;22.15;41.29
77975;BME280;67164;51.202;0.278;2023-04-25T00:36:26;101144.18;;;22.19;41.29
77975;BME280;67164;51.202;0.278;2023-04-25T00:38:52;101149.96;;;22.23;41.22
77975;BME280;67164;51.202;0.278;2023-04-25T00:41:20;101146.48;;;22.13;41.28
77975;BME280;67164;51.202;0.278;2023-04-25T00:43:44;101150.37;;;22.12;41.33
77975;BME280;67164;51.202;0.278;2023-04-25T00:46:11;101152.94;;;22.02;41.49
77975;BME280;67164;51.202;0.278;2023-04-25T00:48:35;101157.97;;;22.02;41.46
77975;BME280;67164;51.202;0.278;2023-04-25T00:51:00;101164.87;;;21.71;41.51
77975;BME280;67164;51.202;0.278;2023-04-25T00:53:28;101164.62;;;21.69;41.54
77975;BME280;67164;51.202;0.278;2023-04-25T00:55:52;101163.40;;;21.68;41.54
77975;BME280;67164;51.202;0.278;2023-04-25T00:58:19;101164.70;;;21.89;41.43
77975;BME280;67164;51.202;0.278;2023-04-25T01:00:46;101165.01;;;21.91;41.49
77975;BME280;67164;51.202;0.278;2023-04-25T01:03:11;101161.04;;;21.62;41.55
77975;BME280;67164;51.202;0.278;2023-04-25T01:05:35;101159.63;;;21.82;41.51
77975;BME280;67164;51.202;0.278;2023-04-25T01:08:02;101160.82;;;22.05;41.40
77975;BME280;67164;51.202;0.278;2023-04-25T01:10:28;101163.49;;;21.97;41.53
77975;BME280;67164;51.202;0.278;2023-04-25T01:12:53;101168.78;;;21.77;41.54
77975;BME280;67164;51.202;0.278;2023-04-25T01:15:18;101171.68;;;21.70;41.44
77975;BME280;67164;51.202;0.278;2023-04-25T01:17:45;101176.23;;;21.71;41.51
77975;BME280;67164;51.202;0.278;2023-04-25T01:27:27;101181.09;;;21.69;41.29
77975;BME280;67164;51.202;0.278;2023-04-25T01:29:54;101177.45;;;21.66;41.27
77975;BME280;67164;51.202;0.278;2023-04-25T01:32:19;101175.11;;;21.72;41.19
77975;BME280;67164;51.202;0.278;2023-04-25T01:34:44;101174.73;;;21.68;41.24
77975;BME280;67164;51.202;0.278;2023-04-25T01:37:10;101176.24;;;21.62;41.11
77975;BME280;67164;51.202;0.278;2023-04-25T01:39:36;101182.90;;;21.62;41.29
77975;BME280;67164;51.202;0.278;2023-04-25T01:42:02;101188.37;;;21.36;41.22
77975;BME280;67164;51.202;0.278;2023-04-25T01:44:27;101193.41;;;21.58;41.29
77975;BME280;67164;51.202;0.278;2023-04-25T01:46:54;101194.36;;;21.49;41.48
77975;BME280;67164;51.202;0.278;2023-04-25T01:49:19;101192.21;;;21.49;41.47
77975;BME280;67164;51.202;0.278;2023-04-25T01:51:45;101193.73;;;21.46;41.33
77975;BME280;67164;51.202;0.278;2023-04-25T01:54:11;101192.55;;;21.45;41.59
77975;BME280;67164;51.202;0.278;2023-04-25T01:56:37;101191.44;;;21.42;41.57
77975;BME280;67164;51.202;0.278;2023-04-25T01:59:03;101196.41;;;21.41;41.36
77975;BME280;67164;51.202;0.278;2023-04-25T02:01:28;101196.54;;;21.31;41.72
77975;BME280;67164;51.202;0.278;2023-04-25T02:03:54;101198.97;;;21.31;41.72
77975;BME280;67164;51.202;0.278;2023-04-25T02:06:20;101197.66;;;21.29;41.34
77975;BME280;67164;51.202;0.278;2023-04-25T02:08:45;101195.27;;;21.25;41.48
77975;BME280;67164;51.202;0.278;2023-04-25T02:11:12;101196.37;;;21.48;41.70
77975;BME280;67164;51.202;0.278;2023-04-25T02:13:37;101195.91;;;21.22;41.62
77975;BME280;67164;51.202;0.278;2023-04-25T02:16:04;101197.87;;;21.46;41.48
77975;BME280;67164;51.202;0.278;2023-04-25T02:18:28;101198.37;;;21.13;41.24
77975;BME280;67164;51.202;0.278;2023-04-25T02:20:54;101204.40;;;21.09;41.20
77975;BME280;67164;51.202;0.278;2023-04-25T02:23:20;101210.70;;;21.17;41.36
77975;BME280;67164;51.202;0.278;2023-04-25T02:25:46;101211.97;;;21.33;41.36
77975;BME280;67164;51.202;0.278;2023-04-25T02:28:12;101211.57;;;20.99;41.30
77975;BME280;67164;51.202;0.278;2023-04-25T02:30:38;101208.84;;;21.00;41.37
77975;BME280;67164;51.202;0.278;2023-04-25T02:33:03;101209.06;;;21.26;41.16
77975;BME280;67164;51.202;0.278;2023-04-25T02:35:29;101207.48;;;20.96;41.18
77975;BME280;67164;51.202;0.278;2023-04-25T02:37:55;101209.88;;;21.20;41.09
77975;BME280;67164;51.202;0.278;2023-04-25T02:40:21;101207.46;;;20.91;41.03
77975;BME280;67164;51.202;0.278;2023-04-25T02:42:47;101208.00;;;21.39;41.11
77975;BME280;67164;51.202;0.278;2023-04-25T02:45:12;101207.78;;;21.35;41.02
77975;BME280;67164;51.202;0.278;2023-04-25T02:47:38;101215.13;;;20.81;41.07
77975;BME280;67164;51.202;0.278;2023-04-25T02:50:05;101217.58;;;21.06;40.94
77975;BME280;67164;51.202;0.278;2023-04-25T02:52:30;101218.20;;;21.38;40.98
77975;BME280;67164;51.202;0.278;2023-04-25T02:54:56;101215.17;;;21.01;41.11
77975;BME280;67164;51.202;0.278;2023-04-25T02:57:22;101216.68;;;21.06;40.98
77975;BME280;67164;51.202;0.278;2023-04-25T02:59:48;101218.46;;;20.79;41.04
77975;BME280;67164;51.202;0.278;2023-04-25T03:02:13;101219.09;;;20.79;40.82
77975;BME280;67164;51.202;0.278;2023-04-25T03:04:39;101223.08;;;20.70;40.99
77975;BME280;67164;51.202;0.278;2023-04-25T03:07:05;101227.15;;;21.00;41.03
77975;BME280;67164;51.202;0.278;2023-04-25T03:09:31;101223.86;;;20.82;41.20
77975;BME280;67164;51.202;0.278;2023-04-25T03:11:56;101225.07;;;21.10;41.06
77975;BME280;67164;51.202;0.278;2023-04-25T03:14:22;101225.59;;;20.59;40.93
77975;BME280;67164;51.202;0.278;2023-04-25T03:16:48;101221.04;;;20.56;40.95
77975;BME280;67164;51.202;0.278;2023-04-25T03:19:14;101231.17;;;20.77;41.02
77975;BME280;67164;51.202;0.278;2023-04-25T03:21:40;101232.59;;;20.85;41.00
77975;BME280;67164;51.202;0.278;2023-04-25T03:24:06;101233.70;;;21.07;41.30
77975;BME280;67164;51.202;0.278;2023-04-25T03:26:31;101233.25;;;20.70;41.03
77975;BME280;67164;51.202;0.278;2023-04-25T03:28:57;101234.87;;;20.79;40.73
77975;BME280;67164;51.202;0.278;2023-04-25T03:31:23;101238.25;;;20.70;40.94
77975;BME280;67164;51.202;0.278;2023-04-25T03:33:49;101243.38;;;20.65;40.95
77975;BME280;67164;51.202;0.278;2023-04-25T03:36:15;101243.87;;;20.66;40.81
77975;BME280;67164;51.202;0.278;2023-04-25T03:38:40;101239.79;;;20.96;40.93
77975;BME280;67164;51.202;0.278;2023-04-25T03:41:06;101242.79;;;20.87;40.87
77975;BME280;67164;51.202;0.278;2023-04-25T03:43:32;101243.20;;;20.66;40.87
77975;BME280;67164;51.202;0.278;2023-04-25T03:45:57;101240.56;;;20.84;40.77
77975;BME280;67164;51.202;0.278;2023-04-25T03:48:23;101240.60;;;20.60;40.78
77975;BME280;67164;51.202;0.278;2023-04-25T03:50:49;101243.89;;;20.78;40.73
77975;BME280;67164;51.202;0.278;2023-04-25T03:53:15;101253.49;;;20.26;40.58
77975;BME280;67164;51.202;0.278;2023-04-25T03:55:41;101256.77;;;20.79;40.90
77975;BME280;67164;51.202;0.278;2023-04-25T03:58:07;101261.90;;;20.55;40.48
77975;BME280;67164;51.202;0.278;2023-04-25T04:00:33;101258.19;;;20.49;40.59
77975;BME280;67164;51.202;0.278;2023-04-25T04:02:58;101261.95;;;20.78;40.81
77975;BME280;67164;51.202;0.278;2023-04-25T04:05:24;101263.65;;;20.75;40.81
77975;BME280;67164;51.202;0.278;2023-04-25T04:07:50;101264.50;;;20.68;40.63
77975;BME280;67164;51.202;0.278;2023-04-25T04:10:16;101265.15;;;20.66;40.57
77975;BME280;67164;51.202;0.278;2023-04-25T04:12:41;101269.83;;;20.68;40.69
77975;BME280;67164;51.202;0.278;2023-04-25T04:15:08;101274.83;;;20.71;40.52
77975;BME280;67164;51.202;0.278;2023-04-25T04:17:34;101282.13;;;20.67;40.62
77975;BME280;67164;51.202;0.278;2023-04-25T04:19:59;101286.70;;;20.58;40.94
77975;BME280;67164;51.202;0.278;2023-04-25T04:22:25;101285.22;;;20.57;40.63
77975;BME280;67164;51.202;0.278;2023-04-25T04:24:50;101283.45;;;20.41;40.83
77975;BME280;67164;51.202;0.278;2023-04-25T04:27:17;101284.92;;;20.54;40.55
77975;BME280;67164;51.202;0.278;2023-04-25T04:29:42;101287.61;;;20.56;40.58
77975;BME280;67164;51.202;0.278;2023-04-25T04:32:08;101297.15;;;20.46;40.53
77975;BME280;67164;51.202;0.278;2023-04-25T04:34:34;101297.82;;;20.51;40.54
77975;BME280;67164;51.202;0.278;2023-04-25T04:37:00;101294.69;;;20.50;40.90
77975;BME280;67164;51.202;0.278;2023-04-25T04:39:25;101301.23;;;20.17;40.91
77975;BME280;67164;51.202;0.278;2023-04-25T04:41:51;101305.20;;;20.45;40.45
77975;BME280;67164;51.202;0.278;2023-04-25T04:44:17;101309.03;;;20.49;40.47
77975;BME280;67164;51.202;0.278;2023-04-25T04:46:43;101320.66;;;20.41;40.24
77975;BME280;67164;51.202;0.278;2023-04-25T04:49:09;101333.00;;;20.31;40.49
77975;BME280;67164;51.202;0.278;2023-04-25T04:51:35;101338.80;;;20.40;40.76
77975;BME280;67164;51.202;0.278;2023-04-25T04:54:00;101337.80;;;20.33;40.67
77975;BME280;67164;51.202;0.278;2023-04-25T04:56:26;101338.61;;;20.24;40.74
77975;BME280;67164;51.202;0.278;2023-04-25T04:58:52;101350.88;;;20.23;40.69
77975;BME280;67164;51.202;0.278;2023-04-25T05:01:18;101355.03;;;20.18;40.69
77975;BME280;67164;51.202;0.278;2023-04-25T05:03:43;101367.16;;;20.26;40.41
77975;BME280;67164;51.202;0.278;2023-04-25T05:06:10;101373.15;;;20.18;40.44
77975;BME280;67164;51.202;0.278;2023-04-25T05:08:35;101377.34;;;20.08;40.62
77975;BME280;67164;51.202;0.278;2023-04-25T05:11:01;101379.82;;;20.15;40.42
77975;BME280;67164;51.202;0.278;2023-04-25T05:13:27;101380.24;;;19.91;40.59
77975;BME280;67164;51.202;0.278;2023-04-25T05:15:53;101379.54;;;20.17;40.27
77975;BME280;67164;51.202;0.278;2023-04-25T05:18:19;101368.50;;;20.18;40.52
77975;BME280;67164;51.202;0.278;2023-04-25T05:20:44;101371.22;;;20.16;40.90
77975;BME280;67164;51.202;0.278;2023-04-25T05:23:10;101381.13;;;20.04;40.46
77975;BME280;67164;51.202;0.278;2023-04-25T05:25:36;101378.05;;;20.15;40.54
77975;BME280;67164;51.202;0.278;2023-04-25T05:28:02;101373.81;;;20.11;40.58
77975;BME280;67164;51.202;0.278;2023-04-25T05:30:27;101382.86;;;20.16;40.96
77975;BME280;67164;51.202;0.278;2023-04-25T05:32:53;101382.37;;;20.12;40.19
77975;BME280;67164;51.202;0.278;2023-04-25T05:35:19;101381.61;;;20.17;40.63
77975;BME280;67164;51.202;0.278;2023-04-25T05:37:45;101394.45;;;20.07;40.50
77975;BME280;67164;51.202;0.278;2023-04-25T05:40:12;101398.94;;;19.99;40.82
77975;BME280;67164;51.202;0.278;2023-04-25T05:42:36;101404.95;;;20.00;40.70
77975;BME280;67164;51.202;0.278;2023-04-25T05:45:03;101408.96;;;20.05;40.62
77975;BME280;67164;51.202;0.278;2023-04-25T05:47:28;101407.76;;;20.24;40.50
77975;BME280;67164;51.202;0.278;2023-04-25T05:49:54;101405.11;;;19.97;40.63
77975;BME280;67164;51.202;0.278;2023-04-25T05:52:20;101409.18;;;19.96;40.42
77975;BME280;67164;51.202;0.278;2023-04-25T05:54:45;101413.60;;;19.91;40.49
77975;BME280;67164;51.202;0.278;2023-04-25T05:57:20;101426.99;;;19.99;40.45
77975;BME280;67164;51.202;0.278;2023-04-25T05:59:37;101433.38;;;20.16;40.51
77975;BME280;67164;51.202;0.278;2023-04-25T06:02:03;101434.74;;;19.90;40.50
77975;BME280;67164;51.202;0.278;2023-04-25T06:04:29;101431.18;;;19.88;40.60
77975;BME280;67164;51.202;0.278;2023-04-25T06:06:55;101427.50;;;19.87;40.43
77975;BME280;67164;51.202;0.278;2023-04-25T06:09:20;101427.94;;;20.00;40.29
77975;BME280;67164;51.202;0.278;2023-04-25T06:11:46;101426.63;;;20.02;40.15
77975;BME280;67164;51.202;0.278;2023-04-25T06:14:12;101428.77;;;20.13;40.16
77975;BME280;67164;51.202;0.278;2023-04-25T06:16:37;101431.13;;;20.03;40.30
77975;BME280;67164;51.202;0.278;2023-04-25T06:19:03;101436.29;;;20.02;40.34
77975;BME280;67164;51.202;0.278;2023-04-25T06:21:29;101442.87;;;20.09;40.41
77975;BME280;67164;51.202;0.278;2023-04-25T06:23:55;101447.18;;;20.09;40.42
77975;BME280;67164;51.202;0.278;2023-04-25T06:26:20;101446.93;;;20.12;40.16
77975;BME280;67164;51.202;0.278;2023-04-25T06:28:46;101449.18;;;20.05;40.33
77975;BME280;67164;51.202;0.278;2023-04-25T06:31:12;101445.99;;;20.00;40.44
77975;BME280;67164;51.202;0.278;2023-04-25T06:33:38;101446.23;;;19.94;40.32
77975;BME280;67164;51.202;0.278;2023-04-25T06:36:04;101450.51;;;19.88;40.66
77975;BME280;67164;51.202;0.278;2023-04-25T06:38:30;101450.18;;;19.87;40.54
77975;BME280;67164;51.202;0.278;2023-04-25T06:40:55;101449.84;;;19.93;40.44
77975;BME280;67164;51.202;0.278;2023-04-25T06:43:21;101456.27;;;19.97;40.86
77975;BME280;67164;51.202;0.278;2023-04-25T06:45:47;101456.39;;;20.23;40.67
77975;BME280;67164;51.202;0.278;2023-04-25T06:48:13;101457.51;;;20.17;39.72
77975;BME280;67164;51.202;0.278;2023-04-25T06:50:40;101458.32;;;20.26;40.26
77975;BME280;67164;51.202;0.278;2023-04-25T06:53:05;101460.65;;;20.04;40.42
77975;BME280;67164;51.202;0.278;2023-04-25T06:55:31;101453.70;;;20.15;39.45
77975;BME280;67164;51.202;0.278;2023-04-25T06:57:56;101452.88;;;20.05;40.27
77975;BME280;67164;51.202;0.278;2023-04-25T07:00:22;101451.58;;;20.12;40.41
77975;BME280;67164;51.202;0.278;2023-04-25T07:02:48;101455.79;;;20.11;40.34
77975;BME280;67164;51.202;0.278;2023-04-25T07:05:14;101460.90;;;20.37;40.73
77975;BME280;67164;51.202;0.278;2023-04-25T07:07:39;101460.74;;;20.63;39.88
77975;BME280;67164;51.202;0.278;2023-04-25T07:10:06;101471.62;;;20.53;39.99
77975;BME280;67164;51.202;0.278;2023-04-25T07:12:31;101469.08;;;20.93;39.59
77975;BME280;67164;51.202;0.278;2023-04-25T07:14:57;101472.90;;;20.76;40.24
77975;BME280;67164;51.202;0.278;2023-04-25T07:17:23;101476.47;;;20.82;39.97
77975;BME280;67164;51.202;0.278;2023-04-25T07:19:48;101478.90;;;20.43;40.30
77975;BME280;67164;51.202;0.278;2023-04-25T07:22:14;101475.94;;;19.79;39.82
77975;BME280;67164;51.202;0.278;2023-04-25T07:24:40;101477.91;;;19.94;39.27
77975;BME280;67164;51.202;0.278;2023-04-25T07:27:07;101481.82;;;19.80;39.19
77975;BME280;67164;51.202;0.278;2023-04-25T07:29:31;101482.43;;;19.51;39.20
77975;BME280;67164;51.202;0.278;2023-04-25T07:31:56;101484.08;;;19.96;38.76
77975;BME280;67164;51.202;0.278;2023-04-25T07:34:22;101485.83;;;19.97;38.86
77975;BME280;67164;51.202;0.278;2023-04-25T07:36:46;101483.98;;;19.84;39.20
77975;BME280;67164;51.202;0.278;2023-04-25T07:39:12;101486.66;;;19.80;39.15
77975;BME280;67164;51.202;0.278;2023-04-25T07:41:37;101487.03;;;19.82;39.15
77975;BME280;67164;51.202;0.278;2023-04-25T07:44:03;101482.33;;;19.91;39.13
77975;BME280;67164;51.202;0.278;2023-04-25T07:46:28;101479.61;;;19.87;39.12
77975;BME280;67164;51.202;0.278;2023-04-25T07:48:53;101487.40;;;19.97;39.08
77975;BME280;67164;51.202;0.278;2023-04-25T07:51:19;101493.89;;;19.97;39.00
77975;BME280;67164;51.202;0.278;2023-04-25T07:53:44;101496.99;;;20.28;38.93
77975;BME280;67164;51.202;0.278;2023-04-25T07:56:09;101499.33;;;20.06;38.81
77975;BME280;67164;51.202;0.278;2023-04-25T07:58:35;101502.83;;;20.09;38.76
77975;BME280;67164;51.202;0.278;2023-04-25T08:01:01;101507.01;;;20.11;38.67
77975;BME280;67164;51.202;0.278;2023-04-25T08:03:26;101511.95;;;20.18;38.73
77975;BME280;67164;51.202;0.278;2023-04-25T08:05:51;101517.63;;;20.23;38.66
77975;BME280;67164;51.202;0.278;2023-04-25T08:08:16;101522.32;;;20.26;38.61
77975;BME280;67164;51.202;0.278;2023-04-25T08:10:42;101525.73;;;20.57;38.39
77975;BME280;67164;51.202;0.278;2023-04-25T08:13:08;101533.05;;;20.83;38.08
77975;BME280;67164;51.202;0.278;2023-04-25T08:15:34;101532.60;;;20.90;38.00
77975;BME280;67164;51.202;0.278;2023-04-25T08:18:00;101537.66;;;20.71;37.95
77975;BME280;67164;51.202;0.278;2023-04-25T08:20:26;101538.25;;;21.10;37.97
77975;BME280;67164;51.202;0.278;2023-04-25T08:22:51;101545.43;;;21.05;38.01
77975;BME280;67164;51.202;0.278;2023-04-25T08:25:22;101542.36;;;21.06;38.00
77975;BME280;67164;51.202;0.278;2023-04-25T08:27:43;101543.57;;;21.09;37.96
77975;BME280;67164;51.202;0.278;2023-04-25T08:30:09;101542.00;;;21.17;37.91
77975;BME280;67164;51.202;0.278;2023-04-25T08:32:35;101547.52;;;21.18;37.97
77975;BME280;67164;51.202;0.278;2023-04-25T08:35:00;101550.02;;;21.18;38.00
77975;BME280;67164;51.202;0.278;2023-04-25T08:37:31;101545.33;;;21.17;37.92
77975;BME280;67164;51.202;0.278;2023-04-25T08:39:52;101549.73;;;21.16;38.08
77975;BME280;67164;51.202;0.278;2023-04-25T08:42:18;101548.22;;;21.18;37.95
77975;BME280;67164;51.202;0.278;2023-04-25T08:44:45;101547.36;;;21.20;37.88
77975;BME280;67164;51.202;0.278;2023-04-25T08:47:09;101545.39;;;21.20;38.00
77975;BME280;67164;51.202;0.278;2023-04-25T08:49:36;101548.16;;;21.19;38.01
77975;BME280;67164;51.202;0.278;2023-04-25T08:52:07;101550.44;;;21.17;37.98
77975;BME280;67164;51.202;0.278;2023-04-25T08:54:27;101549.34;;;21.18;37.89
77975;BME280;67164;51.202;0.278;2023-04-25T08:56:54;101553.20;;;21.17;38.11
77975;BME280;67164;51.202;0.278;2023-04-25T08:59:19;101554.41;;;21.16;38.11
77975;BME280;67164;51.202;0.278;2023-04-25T09:01:44;101556.52;;;21.12;38.31
77975;BME280;67164;51.202;0.278;2023-04-25T09:04:12;101560.58;;;21.13;38.17
77975;BME280;67164;51.202;0.278;2023-04-25T09:06:36;101560.60;;;21.10;38.09
77975;BME280;67164;51.202;0.278;2023-04-25T09:09:04;101560.10;;;21.10;38.17
77975;BME280;67164;51.202;0.278;2023-04-25T09:11:28;101561.01;;;21.10;37.92
77975;BME280;67164;51.202;0.278;2023-04-25T09:16:19;101560.54;;;21.13;38.05
77975;BME280;67164;51.202;0.278;2023-04-25T09:18:47;101562.60;;;21.11;38.01
77975;BME280;67164;51.202;0.278;2023-04-25T09:21:13;101563.87;;;21.10;37.98
77975;BME280;67164;51.202;0.278;2023-04-25T09:23:41;101564.71;;;21.07;37.97
77975;BME280;67164;51.202;0.278;2023-04-25T09:26:02;101564.14;;;21.08;37.83
77975;BME280;67164;51.202;0.278;2023-04-25T09:28:28;101562.24;;;21.02;37.94
77975;BME280;67164;51.202;0.278;2023-04-25T09:30:56;101563.37;;;21.00;37.97
77975;BME280;67164;51.202;0.278;2023-04-25T09:33:20;101564.45;;;21.00;38.05
77975;BME280;67164;51.202;0.278;2023-04-25T09:35:46;101567.98;;;21.00;38.14
77975;BME280;67164;51.202;0.278;2023-04-25T09:38:13;101565.96;;;20.96;38.28
77975;BME280;67164;51.202;0.278;2023-04-25T09:40:41;101564.13;;;20.90;38.40
77975;BME280;67164;51.202;0.278;2023-04-25T09:43:09;101562.39;;;20.92;38.26
77975;BME280;67164;51.202;0.278;2023-04-25T09:45:29;101559.20;;;20.97;38.21
77975;BME280;67164;51.202;0.278;2023-04-25T09:47:55;101558.64;;;20.91;38.02
77975;BME280;67164;51.202;0.278;2023-04-25T09:50:20;101559.15;;;20.91;38.17
77975;BME280;67164;51.202;0.278;2023-04-25T09:55:12;101558.38;;;20.88;38.18
77975;BME280;67164;51.202;0.278;2023-04-25T09:57:38;101555.99;;;20.84;38.68
77975;BME280;67164;51.202;0.278;2023-04-25T10:00:05;101555.19;;;20.88;38.71
77975;BME280;67164;51.202;0.278;2023-04-25T10:02:30;101560.08;;;20.83;38.86
77975;BME280;67164;51.202;0.278;2023-04-25T10:04:56;101550.97;;;20.84;38.76
77975;BME280;67164;51.202;0.278;2023-04-25T10:07:22;101556.10;;;20.86;38.82
77975;BME280;67164;51.202;0.278;2023-04-25T10:09:49;101554.92;;;20.76;39.26
77975;BME280;67164;51.202;0.278;2023-04-25T10:12:13;101552.05;;;20.70;39.24
77975;BME280;67164;51.202;0.278;2023-04-25T10:14:38;101555.16;;;20.80;39.60
77975;BME280;67164;51.202;0.278;2023-04-25T10:17:04;101558.24;;;20.61;39.21
77975;BME280;67164;51.202;0.278;2023-04-25T10:19:31;101568.05;;;20.31;39.60
77975;BME280;67164;51.202;0.278;2023-04-25T10:22:03;101563.40;;;20.78;39.30
77975;BME280;67164;51.202;0.278;2023-04-25T10:24:21;101565.75;;;20.49;39.74
77975;BME280;67164;51.202;0.278;2023-04-25T10:26:47;101563.15;;;20.41;39.82
77975;BME280;67164;51.202;0.278;2023-04-25T10:29:22;101564.71;;;20.42;39.67
77975;BME280;67164;51.202;0.278;2023-04-25T10:31:45;101560.71;;;20.66;39.48
77975;BME280;67164;51.202;0.278;2023-04-25T10:34:04;101563.60;;;20.47;39.81
77975;BME280;67164;51.202;0.278;2023-04-25T10:36:32;101567.24;;;20.66;38.91
77975;BME280;67164;51.202;0.278;2023-04-25T10:38:56;101567.45;;;20.47;39.40
77975;BME280;67164;51.202;0.278;2023-04-25T10:41:22;101575.45;;;20.87;40.13
77975;BME280;67164;51.202;0.278;2023-04-25T10:43:59;101573.34;;;20.51;40.08
77975;BME280;67164;51.202;0.278;2023-04-25T10:46:19;101569.28;;;20.29;40.42
77975;BME280;67164;51.202;0.278;2023-04-25T10:48:45;101575.44;;;20.49;39.69
77975;BME280;67164;51.202;0.278;2023-04-25T10:51:08;101574.86;;;20.43;39.69
77975;BME280;67164;51.202;0.278;2023-04-25T10:53:33;101576.65;;;20.66;40.00
77975;BME280;67164;51.202;0.278;2023-04-25T10:55:57;101574.33;;;20.17;40.04
77975;BME280;67164;51.202;0.278;2023-04-25T10:58:23;101573.93;;;20.08;40.16
77975;BME280;67164;51.202;0.278;2023-04-25T11:00:49;101568.00;;;20.33;39.95
77975;BME280;67164;51.202;0.278;2023-04-25T11:03:16;101566.10;;;20.11;39.83
77975;BME280;67164;51.202;0.278;2023-04-25T11:05:40;101567.96;;;20.08;40.14
77975;BME280;67164;51.202;0.278;2023-04-25T11:08:11;101569.79;;;20.29;39.83
77975;BME280;67164;51.202;0.278;2023-04-25T11:10:32;101572.90;;;20.06;39.88
77975;BME280;67164;51.202;0.278;2023-04-25T11:12:58;101569.09;;;20.07;39.98
77975;BME280;67164;51.202;0.278;2023-04-25T11:15:24;101566.85;;;19.99;40.10
77975;BME280;67164;51.202;0.278;2023-04-25T11:17:51;101565.58;;;20.22;39.95
77975;BME280;67164;51.202;0.278;2023-04-25T11:20:15;101565.17;;;20.19;40.08
77975;BME280;67164;51.202;0.278;2023-04-25T11:22:41;101566.16;;;20.02;40.03
77975;BME280;67164;51.202;0.278;2023-04-25T11:25:08;101557.09;;;20.22;40.18
77975;BME280;67164;51.202;0.278;2023-04-25T11:27:32;101553.69;;;19.94;40.25
77975;BME280;67164;51.202;0.278;2023-04-25T11:29:58;101555.94;;;20.15;40.20
77975;BME280;67164;51.202;0.278;2023-04-25T11:32:24;101553.89;;;20.02;39.93
77975;BME280;67164;51.202;0.278;2023-04-25T11:34:52;101557.27;;;20.26;39.73
77975;BME280;67164;51.202;0.278;2023-04-25T11:37:15;101556.66;;;20.07;39.95
77975;BME280;67164;51.202;0.278;2023-04-25T11:39:45;101563.07;;;20.22;40.02
77975;BME280;67164;51.202;0.278;2023-04-25T11:42:07;101561.93;;;20.38;39.67
77975;BME280;67164;51.202;0.278;2023-04-25T11:44:33;101561.20;;;20.62;39.70
77975;BME280;67164;51.202;0.278;2023-04-25T11:46:59;101558.54;;;20.14;39.94
77975;BME280;67164;51.202;0.278;2023-04-25T11:49:30;101552.05;;;20.06;40.04
77975;BME280;67164;51.202;0.278;2023-04-25T11:51:50;101556.19;;;20.29;39.98
77975;BME280;67164;51.202;0.278;2023-04-25T11:54:16;101559.12;;;20.03;39.90
77975;BME280;67164;51.202;0.278;2023-04-25T11:56:42;101562.30;;;20.06;40.17
77975;BME280;67164;51.202;0.278;2023-04-25T11:59:08;101567.59;;;20.55;39.95
77975;BME280;67164;51.202;0.278;2023-04-25T12:01:34;101569.84;;;20.29;39.93
77975;BME280;67164;51.202;0.278;2023-04-25T12:06:27;101572.56;;;20.30;39.94
77975;BME280;67164;51.202;0.278;2023-04-25T12:09:00;101569.38;;;20.24;39.84
77975;BME280;67164;51.202;0.278;2023-04-25T12:11:21;101565.31;;;20.34;39.90
77975;BME280;67164;51.202;0.278;2023-04-25T12:13:44;101562.37;;;20.22;39.98
77975;BME280;67164;51.202;0.278;2023-04-25T12:16:08;101558.82;;;20.42;40.12
77975;BME280;67164;51.202;0.278;2023-04-25T12:18:36;101559.47;;;19.96;39.83
77975;BME280;67164;51.202;0.278;2023-04-25T12:21:00;101563.82;;;20.19;40.18
77975;BME280;67164;51.202;0.278;2023-04-25T12:23:26;101563.61;;;19.91;40.23
77975;BME280;67164;51.202;0.278;2023-04-25T12:25:51;101562.93;;;20.13;40.20
77975;BME280;67164;51.202;0.278;2023-04-25T12:28:18;101564.18;;;20.18;40.08
77975;BME280;67164;51.202;0.278;2023-04-25T12:30:56;101565.13;;;19.95;39.97
77975;BME280;67164;51.202;0.278;2023-04-25T12:33:09;101569.63;;;20.16;39.87
77975;BME280;67164;51.202;0.278;2023-04-25T12:35:35;101573.04;;;20.18;39.91
77975;BME280;67164;51.202;0.278;2023-04-25T12:38:01;101573.42;;;20.19;39.91
77975;BME280;67164;51.202;0.278;2023-04-25T12:40:26;101573.12;;;19.95;39.84
77975;BME280;67164;51.202;0.278;2023-04-25T12:42:52;101576.74;;;20.18;39.76
77975;BME280;67164;51.202;0.278;2023-04-25T12:45:18;101576.37;;;20.22;39.59
77975;BME280;67164;51.202;0.278;2023-04-25T12:47:44;101576.71;;;19.96;39.83
77975;BME280;67164;51.202;0.278;2023-04-25T12:50:19;101582.25;;;19.90;39.77
77975;BME280;67164;51.202;0.278;2023-04-25T12:52:36;101580.99;;;19.90;39.77
77975;BME280;67164;51.202;0.278;2023-04-25T12:55:01;101580.09;;;20.07;39.98